Time,TemperatureF,DewpointF,PressureIn,WindDirection,WindDirectionDegrees,WindSpeedMPH,WindSpeedGustMPH,Humidity,HourlyPrecipIn,Conditions,Clouds,dailyrainin,SoftwareType,DateUTC
2013-05-02 00:01:00,68.2,56.8,30.15,SE,128,4.0,4.0,67,0.00,,,0.00,Wunderground v.1.15,2013-05-02 04:01:00,
2013-05-02 00:06:00,68.1,56.7,30.15,SE,132,4.0,6.0,67,0.00,,,0.00,Wunderground v.1.15,2013-05-02 04:06:00,
2013-05-02 00:11:00,67.9,56.9,30.15,ESE,123,5.0,6.0,68,0.00,,,0.00,Wunderground v.1.15,2013-05-02 04:11:00,
2013-05-02 00:16:00,67.6,56.7,30.15,SE,126,5.0,6.0,68,0.00,,,0.00,Wunderground v.1.15,2013-05-02 04:16:00,
2013-05-02 00:21:00,67.3,56.8,30.15,SE,136,6.0,6.0,69,0.00,,,0.00,Wunderground v.1.15,2013-05-02 04:21:00,
2013-05-02 00:26:00,67.0,56.5,30.15,SE,132,6.0,7.0,69,0.00,,,0.00,Wunderground v.1.15,2013-05-02 04:26:00,
2013-05-02 00:31:00,66.9,56.4,30.15,SE,140,6.0,6.0,69,0.00,,,0.00,Wunderground v.1.15,2013-05-02 04:31:00,
2013-05-02 00:41:00,66.6,56.5,30.15,SE,126,6.0,6.0,70,0.00,,,0.00,Wunderground v.1.15,2013-05-02 04:41:00,
2013-05-02 00:46:00,66.6,56.1,30.15,SE,133,5.0,6.0,69,0.00,,,0.00,Wunderground v.1.15,2013-05-02 04:46:00,
2013-05-02 00:56:00,66.4,56.3,30.15,SE,142,6.0,6.0,70,0.00,,,0.00,Wunderground v.1.15,2013-05-02 04:56:00,
2013-05-02 01:01:00,66.4,55.9,30.15,SSE,153,5.0,5.0,69,0.00,,,0.00,Wunderground v.1.15,2013-05-02 05:01:00,
2013-05-02 01:11:00,66.3,56.2,30.16,SSE,161,4.0,6.0,70,0.00,,,0.00,Wunderground v.1.15,2013-05-02 05:11:00,
2013-05-02 01:21:00,66.0,55.5,30.16,SE,144,7.0,7.0,69,0.00,,,0.00,Wunderground v.1.15,2013-05-02 05:21:00,
2013-05-02 01:26:00,66.0,55.5,30.16,SE,136,8.0,8.0,69,0.00,,,0.00,Wunderground v.1.15,2013-05-02 05:26:00,
2013-05-02 01:36:00,65.6,55.5,30.16,SE,133,7.0,8.0,70,0.00,,,0.00,Wunderground v.1.15,2013-05-02 05:36:00,
2013-05-02 01:46:00,65.1,55.5,30.16,SE,140,7.0,7.0,71,0.00,,,0.00,Wunderground v.1.15,2013-05-02 05:46:00,
2013-05-02 01:51:00,65.0,55.4,30.15,SE,131,7.0,8.0,71,0.00,,,0.00,Wunderground v.1.15,2013-05-02 05:51:00,
2013-05-02 01:56:00,64.9,55.3,30.15,SE,132,8.0,8.0,71,0.00,,,0.00,Wunderground v.1.15,2013-05-02 05:56:00,
2013-05-02 02:06:00,64.8,55.2,30.15,SE,139,8.0,8.0,71,0.00,,,0.00,Wunderground v.1.15,2013-05-02 06:06:00,
2013-05-02 02:16:00,64.6,55.4,30.15,SE,136,9.0,10.0,72,0.00,,,0.00,Wunderground v.1.15,2013-05-02 06:16:00,
2013-05-02 02:21:00,64.4,55.2,30.15,SE,132,9.0,9.0,72,0.00,,,0.00,Wunderground v.1.15,2013-05-02 06:21:00,
2013-05-02 02:30:00,64.0,55.2,30.15,SE,127,10.0,12.0,73,0.00,,,0.00,Wunderground v.1.15,2013-05-02 06:30:00,
2013-05-02 02:36:00,63.9,55.1,30.15,SE,138,10.0,12.0,73,0.00,,,0.00,Wunderground v.1.15,2013-05-02 06:36:00,
2013-05-02 02:41:00,63.7,54.9,30.14,SE,134,11.0,12.0,73,0.00,,,0.00,Wunderground v.1.15,2013-05-02 06:41:00,
2013-05-02 02:46:00,63.5,55.1,30.14,SE,140,11.0,12.0,74,0.00,,,0.00,Wunderground v.1.15,2013-05-02 06:46:00,
2013-05-02 02:55:00,63.1,55.0,30.14,SE,138,11.0,11.0,75,0.00,,,0.00,Wunderground v.1.15,2013-05-02 06:55:00,
2013-05-02 03:01:00,63.0,55.3,30.14,SE,135,10.0,11.0,76,0.00,,,0.00,Wunderground v.1.15,2013-05-02 07:01:00,
2013-05-02 03:11:00,62.7,55.4,30.14,South,178,9.0,9.0,77,0.00,,,0.00,Wunderground v.1.15,2013-05-02 07:11:00,
2013-05-02 03:21:00,62.6,55.6,30.14,SE,146,9.0,9.0,78,0.00,,,0.00,Wunderground v.1.15,2013-05-02 07:21:00,
2013-05-02 03:31:00,62.1,55.5,30.14,SSE,163,5.0,5.0,79,0.00,,,0.00,Wunderground v.1.15,2013-05-02 07:31:00,
2013-05-02 03:36:00,61.8,55.2,30.14,SE,142,5.0,5.0,79,0.00,,,0.00,Wunderground v.1.15,2013-05-02 07:36:00,
2013-05-02 03:41:00,61.6,55.4,30.14,ESE,121,5.0,5.0,80,0.00,,,0.00,Wunderground v.1.15,2013-05-02 07:41:00,
2013-05-02 03:50:00,61.3,55.1,30.14,SE,136,7.0,7.0,80,0.00,,,0.00,Wunderground v.1.15,2013-05-02 07:50:00,
2013-05-02 03:56:00,61.0,55.1,30.14,SE,136,8.0,9.0,81,0.00,,,0.00,Wunderground v.1.15,2013-05-02 07:56:00,
2013-05-02 04:06:00,60.9,55.4,30.14,SE,139,9.0,9.0,82,0.00,,,0.00,Wunderground v.1.15,2013-05-02 08:06:00,
2013-05-02 04:16:00,60.6,55.1,30.14,SSE,150,8.0,9.0,82,0.00,,,0.00,Wunderground v.1.15,2013-05-02 08:16:00,
2013-05-02 04:21:00,60.7,55.2,30.14,SE,142,8.0,8.0,82,0.00,,,0.00,Wunderground v.1.15,2013-05-02 08:21:00,
2013-05-02 04:31:00,60.8,55.3,30.14,SSE,151,7.0,7.0,82,0.00,,,0.00,Wunderground v.1.15,2013-05-02 08:31:00,
2013-05-02 04:36:00,60.7,55.2,30.14,SSE,154,7.0,7.0,82,0.00,,,0.00,Wunderground v.1.15,2013-05-02 08:36:00,
2013-05-02 04:46:00,60.3,55.1,30.14,SSE,153,4.0,5.0,83,0.00,,,0.00,Wunderground v.1.15,2013-05-02 08:46:00,
2013-05-02 04:51:00,60.4,55.2,30.14,SE,142,6.0,7.0,83,0.00,,,0.00,Wunderground v.1.15,2013-05-02 08:51:00,
2013-05-02 05:01:00,60.2,54.7,30.14,SE,141,6.0,8.0,82,0.00,,,0.00,Wunderground v.1.15,2013-05-02 09:01:00,
2013-05-02 05:11:00,60.0,54.5,30.14,SSE,150,7.0,11.0,82,0.00,,,0.00,Wunderground v.1.15,2013-05-02 09:11:00,
2013-05-02 05:21:00,59.6,54.4,30.14,SSE,152,9.0,10.0,83,0.00,,,0.00,Wunderground v.1.15,2013-05-02 09:21:00,
2013-05-02 05:31:00,59.6,54.4,30.14,SE,141,7.0,9.0,83,0.00,,,0.00,Wunderground v.1.15,2013-05-02 09:31:00,
2013-05-02 05:41:00,59.3,54.1,30.14,SSE,157,8.0,8.0,83,0.00,,,0.00,Wunderground v.1.15,2013-05-02 09:41:00,
2013-05-02 05:51:00,59.0,53.8,30.14,SE,142,5.0,5.0,83,0.00,,,0.00,Wunderground v.1.15,2013-05-02 09:51:00,
2013-05-02 05:56:00,58.9,53.7,30.14,SE,145,4.0,9.0,83,0.00,,,0.00,Wunderground v.1.15,2013-05-02 09:56:00,
2013-05-02 06:06:00,58.4,53.6,30.15,SE,130,8.0,9.0,84,0.00,,,0.00,Wunderground v.1.15,2013-05-02 10:06:00,
2013-05-02 06:11:00,58.3,53.5,30.15,SSE,151,9.0,9.0,84,0.00,,,0.00,Wunderground v.1.15,2013-05-02 10:11:00,
2013-05-02 06:21:00,58.3,53.2,30.14,SSE,148,8.0,8.0,83,0.00,,,0.00,Wunderground v.1.15,2013-05-02 10:21:00,
2013-05-02 06:31:00,58.3,53.2,30.15,SE,142,7.0,9.0,83,0.00,,,0.00,Wunderground v.1.15,2013-05-02 10:31:00,
2013-05-02 06:41:00,58.2,53.1,30.15,SE,136,7.0,7.0,83,0.00,,,0.00,Wunderground v.1.15,2013-05-02 10:41:00,
2013-05-02 06:46:00,58.1,53.0,30.15,SE,140,7.0,7.0,83,0.00,,,0.00,Wunderground v.1.15,2013-05-02 10:46:00,
2013-05-02 06:56:00,57.9,52.8,30.15,SE,142,6.0,6.0,83,0.00,,,0.00,Wunderground v.1.15,2013-05-02 10:56:00,
2013-05-02 07:01:00,57.8,52.7,30.15,SE,130,5.0,5.0,83,0.00,,,0.00,Wunderground v.1.15,2013-05-02 11:01:00,
2013-05-02 07:06:00,57.8,52.7,30.15,SE,133,5.0,6.0,83,0.00,,,0.00,Wunderground v.1.15,2013-05-02 11:06:00,
2013-05-02 07:15:00,58.2,53.1,30.16,SE,142,5.0,5.0,83,0.00,,,0.00,Wunderground v.1.15,2013-05-02 11:15:00,
2013-05-02 07:21:00,58.5,53.0,30.16,SE,134,5.0,5.0,82,0.00,,,0.00,Wunderground v.1.15,2013-05-02 11:21:00,
2013-05-02 07:26:00,58.8,53.6,30.16,SE,137,4.0,5.0,83,0.00,,,0.00,Wunderground v.1.15,2013-05-02 11:26:00,
2013-05-02 07:36:00,59.4,53.9,30.17,SE,137,4.0,5.0,82,0.00,,,0.00,Wunderground v.1.15,2013-05-02 11:36:00,
2013-05-02 07:46:00,59.5,53.7,30.17,SSE,150,5.0,5.0,81,0.00,,,0.00,Wunderground v.1.15,2013-05-02 11:46:00,
2013-05-02 07:51:00,59.6,53.8,30.17,SE,144,5.0,5.0,81,0.00,,,0.00,Wunderground v.1.15,2013-05-02 11:51:00,
2013-05-02 08:01:00,60.0,54.2,30.17,SE,129,4.0,5.0,81,0.00,,,0.00,Wunderground v.1.15,2013-05-02 12:01:00,
2013-05-02 08:06:00,60.2,54.0,30.17,SE,132,5.0,6.0,80,0.00,,,0.00,Wunderground v.1.15,2013-05-02 12:06:00,
2013-05-02 08:11:00,60.4,54.2,30.17,East,94,6.0,6.0,80,0.00,,,0.00,Wunderground v.1.15,2013-05-02 12:11:00,
2013-05-02 08:21:00,60.9,54.7,30.17,SE,144,4.0,4.0,80,0.00,,,0.00,Wunderground v.1.15,2013-05-02 12:21:00,
2013-05-02 08:26:00,61.2,55.0,30.17,SE,137,4.0,4.0,80,0.00,,,0.00,Wunderground v.1.15,2013-05-02 12:26:00,
2013-05-02 08:31:00,61.6,55.4,30.17,SSE,153,4.0,4.0,80,0.00,,,0.00,Wunderground v.1.15,2013-05-02 12:31:00,
2013-05-02 08:41:00,62.6,55.6,30.17,SE,144,4.0,5.0,78,0.00,,,0.00,Wunderground v.1.15,2013-05-02 12:41:00,
2013-05-02 08:51:00,63.6,55.9,30.17,SE,137,5.0,5.0,76,0.00,,,0.00,Wunderground v.1.15,2013-05-02 12:51:00,
2013-05-02 08:56:00,64.3,56.2,30.17,ESE,123,6.0,8.0,75,0.00,,,0.00,Wunderground v.1.15,2013-05-02 12:56:00,
2013-05-02 09:06:00,65.5,56.2,30.17,SE,134,5.0,7.0,72,0.00,,,0.00,Wunderground v.1.15,2013-05-02 13:06:00,
2013-05-02 09:11:00,66.1,56.0,30.17,SE,142,5.0,5.0,70,0.00,,,0.00,Wunderground v.1.15,2013-05-02 13:11:00,
2013-05-02 09:21:00,67.0,55.7,30.17,SSE,148,6.0,7.0,67,0.00,,,0.00,Wunderground v.1.15,2013-05-02 13:21:00,
2013-05-02 09:31:00,67.7,55.9,30.18,SE,136,6.0,6.0,66,0.00,,,0.00,Wunderground v.1.15,2013-05-02 13:31:00,
2013-05-02 09:41:00,68.1,55.0,30.18,SE,124,4.0,4.0,63,0.00,,,0.00,Wunderground v.1.15,2013-05-02 13:41:00,
2013-05-02 09:51:00,68.1,55.0,30.18,ESE,117,4.0,6.0,63,0.00,,,0.00,Wunderground v.1.15,2013-05-02 13:51:00,
2013-05-02 09:56:00,68.3,55.6,30.18,East,95,5.0,6.0,64,0.00,,,0.00,Wunderground v.1.15,2013-05-02 13:56:00,
2013-05-02 10:06:00,69.0,55.0,30.17,SE,129,3.0,4.0,61,0.00,,,0.00,Wunderground v.1.15,2013-05-02 14:06:00,
2013-05-02 10:16:00,69.5,55.0,30.17,East,90,3.0,4.0,60,0.00,,,0.00,Wunderground v.1.15,2013-05-02 14:16:00,
2013-05-02 10:21:00,69.7,54.7,30.18,SE,132,3.0,4.0,59,0.00,,,0.00,Wunderground v.1.15,2013-05-02 14:21:00,
2013-05-02 10:31:00,70.0,54.5,30.17,East,90,3.0,3.0,58,0.00,,,0.00,Wunderground v.1.15,2013-05-02 14:31:00,
2013-05-02 10:41:00,70.6,54.6,30.17,ENE,74,2.0,4.0,57,0.00,,,0.00,Wunderground v.1.15,2013-05-02 14:41:00,
2013-05-02 10:51:00,71.4,55.4,30.17,East,93,3.0,4.0,57,0.00,,,0.00,Wunderground v.1.15,2013-05-02 14:51:00,
2013-05-02 10:56:00,71.7,55.7,30.17,East,96,3.0,4.0,57,0.00,,,0.00,Wunderground v.1.15,2013-05-02 14:56:00,
2013-05-02 11:06:00,72.1,55.5,30.17,NE,44,4.0,9.0,56,0.00,,,0.00,Wunderground v.1.15,2013-05-02 15:06:00,
2013-05-02 11:16:00,72.2,55.6,30.17,NE,43,5.0,6.0,56,0.00,,,0.00,Wunderground v.1.15,2013-05-02 15:16:00,
2013-05-02 11:21:00,72.5,54.9,30.17,East,79,4.0,5.0,54,0.00,,,0.00,Wunderground v.1.15,2013-05-02 15:21:00,
2013-05-02 11:31:00,73.1,54.9,30.17,ENE,78,4.0,4.0,53,0.00,,,0.00,Wunderground v.1.15,2013-05-02 15:31:00,
2013-05-02 11:40:00,73.8,55.6,30.16,ESE,119,5.0,5.0,53,0.00,,,0.00,Wunderground v.1.15,2013-05-02 15:40:00,
2013-05-02 11:46:00,73.9,54.6,30.16,ENE,57,5.0,5.0,51,0.00,,,0.00,Wunderground v.1.15,2013-05-02 15:46:00,
2013-05-02 11:51:00,74.1,55.3,30.16,East,94,4.0,4.0,52,0.00,,,0.00,Wunderground v.1.15,2013-05-02 15:51:00,
2013-05-02 12:01:00,74.8,54.9,30.16,East,98,6.0,6.0,50,0.00,,,0.00,Wunderground v.1.15,2013-05-02 16:01:00,
2013-05-02 12:11:00,75.0,54.0,30.15,SE,132,7.0,9.0,48,0.00,,,0.00,Wunderground v.1.15,2013-05-02 16:11:00,
2013-05-02 12:16:00,75.5,53.3,30.15,SE,127,8.0,10.0,46,0.00,,,0.00,Wunderground v.1.15,2013-05-02 16:16:00,
2013-05-02 12:26:00,76.2,53.9,30.15,SE,146,9.0,11.0,46,0.00,,,0.00,Wunderground v.1.15,2013-05-02 16:26:00,
2013-05-02 12:36:00,76.7,53.1,30.14,SE,142,11.0,12.0,44,0.00,,,0.00,Wunderground v.1.15,2013-05-02 16:36:00,
2013-05-02 12:41:00,76.8,53.2,30.14,SE,125,10.0,11.0,44,0.00,,,0.00,Wunderground v.1.15,2013-05-02 16:41:00,
2013-05-02 12:46:00,77.1,53.5,30.15,SE,135,9.0,11.0,44,0.00,,,0.00,Wunderground v.1.15,2013-05-02 16:46:00,
2013-05-02 12:56:00,77.0,52.8,30.14,SE,137,9.0,10.0,43,0.00,,,0.00,Wunderground v.1.15,2013-05-02 16:56:00,
2013-05-02 13:01:00,77.0,53.4,30.14,SE,126,10.0,10.0,44,0.00,,,0.00,Wunderground v.1.15,2013-05-02 17:01:00,
2013-05-02 13:11:00,77.6,54.0,30.13,SE,126,10.0,11.0,44,0.00,,,0.00,Wunderground v.1.15,2013-05-02 17:11:00,
2013-05-02 13:16:00,77.7,52.8,30.13,ESE,113,10.0,11.0,42,0.00,,,0.00,Wunderground v.1.15,2013-05-02 17:16:00,
2013-05-02 13:26:00,77.5,53.9,30.13,SE,129,8.0,10.0,44,0.00,,,0.00,Wunderground v.1.15,2013-05-02 17:26:00,
2013-05-02 13:31:00,77.9,53.6,30.13,ESE,102,9.0,9.0,43,0.00,,,0.00,Wunderground v.1.15,2013-05-02 17:31:00,
2013-05-02 13:41:00,78.3,54.0,30.13,SSE,163,10.0,10.0,43,0.00,,,0.00,Wunderground v.1.15,2013-05-02 17:41:00,
2013-05-02 13:51:00,78.5,54.1,30.12,SE,132,9.0,14.0,43,0.00,,,0.00,Wunderground v.1.15,2013-05-02 17:51:00,
2013-05-02 14:01:00,78.4,53.4,30.11,NE,50,10.0,10.0,42,0.00,,,0.00,Wunderground v.1.15,2013-05-02 18:01:00,
2013-05-02 14:11:00,78.5,54.1,30.11,SE,144,11.0,11.0,43,0.00,,,0.00,Wunderground v.1.15,2013-05-02 18:11:00,
2013-05-02 14:16:00,78.4,53.4,30.11,East,88,9.0,11.0,42,0.00,,,0.00,Wunderground v.1.15,2013-05-02 18:16:00,
2013-05-02 14:26:00,78.4,54.0,30.10,SE,141,11.0,14.0,43,0.00,,,0.00,Wunderground v.1.15,2013-05-02 18:26:00,
2013-05-02 14:36:00,78.6,54.2,30.11,SE,140,11.0,11.0,43,0.00,,,0.00,Wunderground v.1.15,2013-05-02 18:36:00,
2013-05-02 14:46:00,78.5,54.8,30.11,East,90,9.0,9.0,44,0.00,,,0.00,Wunderground v.1.15,2013-05-02 18:46:00,
2013-05-02 14:51:00,78.6,56.1,30.10,SE,131,9.0,14.0,46,0.00,,,0.00,Wunderground v.1.15,2013-05-02 18:51:00,
2013-05-02 15:01:00,78.6,57.3,30.10,SE,126,10.0,10.0,48,0.00,,,0.00,Wunderground v.1.15,2013-05-02 19:01:00,
2013-05-02 15:06:00,78.7,56.2,30.10,SE,138,10.0,10.0,46,0.00,,,0.00,Wunderground v.1.15,2013-05-02 19:06:00,
2013-05-02 15:16:00,79.0,55.8,30.10,SE,136,8.0,13.0,45,0.00,,,0.00,Wunderground v.1.15,2013-05-02 19:16:00,
2013-05-02 15:26:00,79.2,57.2,30.09,ESE,117,7.0,9.0,47,0.00,,,0.00,Wunderground v.1.15,2013-05-02 19:26:00,
2013-05-02 15:31:00,79.1,57.7,30.09,SE,144,7.0,9.0,48,0.00,,,0.00,Wunderground v.1.15,2013-05-02 19:31:00,
2013-05-02 15:41:00,79.2,57.2,30.09,SSE,157,10.0,12.0,47,0.00,,,0.00,Wunderground v.1.15,2013-05-02 19:41:00,
2013-05-02 15:46:00,78.9,57.5,30.09,SE,138,10.0,12.0,48,0.00,,,0.00,Wunderground v.1.15,2013-05-02 19:46:00,
2013-05-02 15:51:00,78.9,56.4,30.08,SSE,159,10.0,10.0,46,0.00,,,0.00,Wunderground v.1.15,2013-05-02 19:51:00,
2013-05-02 16:01:00,79.2,56.6,30.08,ESE,103,9.0,9.0,46,0.00,,,0.00,Wunderground v.1.15,2013-05-02 20:01:00,
2013-05-02 16:11:00,78.8,55.7,30.07,ESE,118,9.0,9.0,45,0.00,,,0.00,Wunderground v.1.15,2013-05-02 20:11:00,
2013-05-02 16:21:00,78.6,56.1,30.07,SE,136,10.0,11.0,46,0.00,,,0.00,Wunderground v.1.15,2013-05-02 20:21:00,
2013-05-02 16:26:00,78.9,56.4,30.07,ENE,66,8.0,11.0,46,0.00,,,0.00,Wunderground v.1.15,2013-05-02 20:26:00,
2013-05-02 16:35:00,79.6,57.0,30.06,ENE,58,2.0,4.0,46,0.00,,,0.00,Wunderground v.1.15,2013-05-02 20:35:00,
2013-05-02 16:41:00,79.6,57.0,30.06,NNE,25,4.0,9.0,46,0.00,,,0.00,Wunderground v.1.15,2013-05-02 20:41:00,
2013-05-02 16:46:00,79.6,57.0,30.06,South,173,9.0,10.0,46,0.00,,,0.00,Wunderground v.1.15,2013-05-02 20:46:00,
2013-05-02 16:55:00,79.0,57.0,30.06,ESE,123,11.0,13.0,47,0.00,,,0.00,Wunderground v.1.15,2013-05-02 20:55:00,
2013-05-02 17:00:00,79.1,55.9,30.06,South,171,8.0,8.0,45,0.00,,,0.00,Wunderground v.1.15,2013-05-02 21:00:00,
2013-05-02 17:05:00,79.4,57.4,30.05,SSE,155,7.0,8.0,47,0.00,,,0.00,Wunderground v.1.15,2013-05-02 21:05:00,
2013-05-02 17:11:00,79.3,56.1,30.05,ESE,112,8.0,8.0,45,0.00,,,0.00,Wunderground v.1.15,2013-05-02 21:11:00,
2013-05-02 17:21:00,79.1,57.7,30.05,SE,128,9.0,9.0,48,0.00,,,0.00,Wunderground v.1.15,2013-05-02 21:21:00,
2013-05-02 17:31:00,79.5,57.5,30.04,East,101,13.0,13.0,47,0.00,,,0.00,Wunderground v.1.15,2013-05-02 21:31:00,
2013-05-02 17:41:00,79.3,57.9,30.05,ESE,119,14.0,14.0,48,0.00,,,0.00,Wunderground v.1.15,2013-05-02 21:41:00,
2013-05-02 17:46:00,79.2,57.8,30.05,SSE,153,13.0,14.0,48,0.00,,,0.00,Wunderground v.1.15,2013-05-02 21:46:00,
2013-05-02 17:51:00,79.5,58.1,30.04,SE,144,12.0,12.0,48,0.00,,,0.00,Wunderground v.1.15,2013-05-02 21:51:00,
2013-05-02 18:00:00,79.5,57.5,30.04,SE,129,12.0,13.0,47,0.00,,,0.00,Wunderground v.1.15,2013-05-02 22:00:00,
2013-05-02 18:05:00,79.3,56.7,30.03,SE,144,12.0,13.0,46,0.00,,,0.00,Wunderground v.1.15,2013-05-02 22:05:00,
2013-05-02 18:10:00,79.1,56.5,30.04,SE,126,14.0,16.0,46,0.00,,,0.00,Wunderground v.1.15,2013-05-02 22:10:00,
2013-05-02 18:21:00,78.1,56.2,30.04,SE,139,13.0,13.0,47,0.00,,,0.00,Wunderground v.1.15,2013-05-02 22:21:00,
2013-05-02 18:31:00,78.2,56.3,30.04,SSE,160,13.0,13.0,47,0.00,,,0.00,Wunderground v.1.15,2013-05-02 22:31:00,
2013-05-02 18:41:00,78.0,56.7,30.04,SE,135,9.0,11.0,48,0.00,,,0.00,Wunderground v.1.15,2013-05-02 22:41:00,
2013-05-02 18:51:00,77.5,56.3,30.03,SE,138,13.0,14.0,48,0.00,,,0.00,Wunderground v.1.15,2013-05-02 22:51:00,
2013-05-02 19:01:00,76.8,56.2,30.03,SE,134,15.0,15.0,49,0.00,,,0.00,Wunderground v.1.15,2013-05-02 23:01:00,
2013-05-02 19:11:00,76.5,55.9,30.03,SSE,167,11.0,11.0,49,0.00,,,0.00,Wunderground v.1.15,2013-05-02 23:11:00,
2013-05-02 19:16:00,76.4,56.4,30.03,SE,144,8.0,14.0,50,0.00,,,0.00,Wunderground v.1.15,2013-05-02 23:16:00,
2013-05-02 19:26:00,75.8,56.9,30.03,SE,128,14.0,16.0,52,0.00,,,0.00,Wunderground v.1.15,2013-05-02 23:26:00,
2013-05-02 19:31:00,75.5,56.1,30.03,ESE,106,12.0,19.0,51,0.00,,,0.00,Wunderground v.1.15,2013-05-02 23:31:00,
2013-05-02 19:36:00,75.1,56.3,30.03,SE,126,11.0,19.0,52,0.00,,,0.00,Wunderground v.1.15,2013-05-02 23:36:00,
2013-05-02 19:45:00,74.6,56.3,30.04,SE,133,12.0,14.0,53,0.00,,,0.00,Wunderground v.1.15,2013-05-02 23:45:00,
2013-05-02 19:50:00,74.4,55.1,30.04,SE,140,14.0,14.0,51,0.00,,,0.00,Wunderground v.1.15,2013-05-02 23:50:00,
2013-05-02 20:00:00,74.0,55.3,30.04,SE,130,14.0,14.0,52,0.00,,,0.00,Wunderground v.1.15,2013-05-03 00:00:00,
2013-05-02 20:05:00,73.8,55.1,30.04,SE,133,14.0,15.0,52,0.00,,,0.00,Wunderground v.1.15,2013-05-03 00:05:00,
2013-05-02 20:16:00,73.2,54.5,30.04,SE,130,12.0,13.0,52,0.00,,,0.00,Wunderground v.1.15,2013-05-03 00:16:00,
2013-05-02 20:25:00,72.7,54.6,30.05,ESE,108,12.0,12.0,53,0.00,,,0.00,Wunderground v.1.15,2013-05-03 00:25:00,
2013-05-02 20:30:00,72.4,54.3,30.04,SE,127,12.0,12.0,53,0.00,,,0.00,Wunderground v.1.15,2013-05-03 00:30:00,
2013-05-02 20:36:00,72.1,54.0,30.05,SE,131,11.0,13.0,53,0.00,,,0.00,Wunderground v.1.15,2013-05-03 00:36:00,
2013-05-02 20:45:00,71.7,54.2,30.05,SE,134,12.0,12.0,54,0.00,,,0.00,Wunderground v.1.15,2013-05-03 00:45:00,
2013-05-02 20:51:00,71.4,53.9,30.05,SE,134,12.0,12.0,54,0.00,,,0.00,Wunderground v.1.15,2013-05-03 00:51:00,
2013-05-02 21:06:00,70.8,53.8,30.05,SE,126,11.0,13.0,55,0.00,,,0.00,Wunderground v.1.15,2013-05-03 01:06:00,
2013-05-02 21:21:00,70.3,53.9,30.06,SE,126,13.0,13.0,56,0.00,,,0.00,Wunderground v.1.15,2013-05-03 01:21:00,
2013-05-02 21:31:00,69.7,53.8,30.06,SE,140,11.0,12.0,57,0.00,,,0.00,Wunderground v.1.15,2013-05-03 01:31:00,
2013-05-02 21:41:00,69.3,53.4,30.07,SSE,162,10.0,10.0,57,0.00,,,0.00,Wunderground v.1.15,2013-05-03 01:41:00,
2013-05-02 21:50:00,68.8,53.9,30.07,SE,132,7.0,7.0,59,0.00,,,0.00,Wunderground v.1.15,2013-05-03 01:50:00,
2013-05-02 21:56:00,68.6,53.7,30.07,SE,134,8.0,8.0,59,0.00,,,0.00,Wunderground v.1.15,2013-05-03 01:56:00,
2013-05-02 22:05:00,68.3,53.9,30.07,SE,136,9.0,9.0,60,0.00,,,0.00,Wunderground v.1.15,2013-05-03 02:05:00,
2013-05-02 22:10:00,68.1,53.7,30.07,SE,133,8.0,9.0,60,0.00,,,0.00,Wunderground v.1.15,2013-05-03 02:10:00,
2013-05-02 22:16:00,67.9,53.5,30.07,SE,132,9.0,9.0,60,0.00,,,0.00,Wunderground v.1.15,2013-05-03 02:16:00,
2013-05-02 22:26:00,67.3,53.4,30.07,SSE,151,10.0,11.0,61,0.00,,,0.00,Wunderground v.1.15,2013-05-03 02:26:00,
2013-05-02 22:41:00,66.5,53.5,30.07,SE,138,8.0,8.0,63,0.00,,,0.00,Wunderground v.1.15,2013-05-03 02:41:00,
2013-05-02 22:50:00,66.3,53.3,30.07,East,98,8.0,10.0,63,0.00,,,0.00,Wunderground v.1.15,2013-05-03 02:50:00,
2013-05-02 22:56:00,66.1,53.1,30.07,ESE,102,8.0,8.0,63,0.00,,,0.00,Wunderground v.1.15,2013-05-03 02:56:00,
2013-05-02 23:05:00,66.1,53.1,30.07,SE,138,11.0,13.0,63,0.00,,,0.00,Wunderground v.1.15,2013-05-03 03:05:00,
2013-05-02 23:11:00,66.0,53.0,30.07,SSE,150,11.0,11.0,63,0.00,,,0.00,Wunderground v.1.15,2013-05-03 03:11:00,
2013-05-02 23:16:00,65.8,53.3,30.07,SE,139,12.0,13.0,64,0.00,,,0.00,Wunderground v.1.15,2013-05-03 03:16:00,
2013-05-02 23:21:00,65.5,53.0,30.07,SE,127,12.0,13.0,64,0.00,,,0.00,Wunderground v.1.15,2013-05-03 03:21:00,
2013-05-02 23:31:00,64.9,52.4,30.07,SE,140,11.0,12.0,64,0.00,,,0.00,Wunderground v.1.15,2013-05-03 03:31:00,
2013-05-02 23:41:00,64.9,52.4,30.07,SE,134,11.0,12.0,64,0.00,,,0.00,Wunderground v.1.15,2013-05-03 03:41:00,
2013-05-02 23:46:00,64.9,52.4,30.07,SE,145,11.0,13.0,64,0.00,,,0.00,Wunderground v.1.15,2013-05-03 03:46:00,
2013-05-02 23:55:00,64.5,52.5,30.07,SE,134,11.0,11.0,65,0.00,,,0.00,Wunderground v.1.15,2013-05-03 03:55:00,